sensor_id;sensor_type;location;lat;lon;timestamp;P1;durP1;ratioP1;P2;durP2;ratioP2
77152;SDS011;66124;51.146;17.072;2023-12-04T00:00:12;24.10;;;10.50;;
77152;SDS011;66124;51.146;17.072;2023-12-04T00:03:04;21.70;;;9.40;;
77152;SDS011;66124;51.146;17.072;2023-12-04T00:05:34;24.00;;;10.60;;
77152;SDS011;66124;51.146;17.072;2023-12-04T00:08:05;18.70;;;8.10;;
77152;SDS011;66124;51.146;17.072;2023-12-04T00:10:35;19.50;;;9.30;;
77152;SDS011;66124;51.146;17.072;2023-12-04T00:13:05;17.30;;;8.90;;
77152;SDS011;66124;51.146;17.072;2023-12-04T00:15:36;18.80;;;9.00;;
77152;SDS011;66124;51.146;17.072;2023-12-04T00:18:08;20.20;;;9.20;;
77152;SDS011;66124;51.146;17.072;2023-12-04T00:20:39;18.30;;;9.30;;
77152;SDS011;66124;51.146;17.072;2023-12-04T00:23:09;19.80;;;10.30;;
77152;SDS011;66124;51.146;17.072;2023-12-04T00:25:40;18.00;;;8.50;;
77152;SDS011;66124;51.146;17.072;2023-12-04T00:28:09;18.60;;;8.90;;
77152;SDS011;66124;51.146;17.072;2023-12-04T00:30:39;19.80;;;8.20;;
77152;SDS011;66124;51.146;17.072;2023-12-04T00:33:10;20.30;;;9.80;;
77152;SDS011;66124;51.146;17.072;2023-12-04T00:35:40;19.80;;;9.20;;
77152;SDS011;66124;51.146;17.072;2023-12-04T00:38:10;21.50;;;9.20;;
77152;SDS011;66124;51.146;17.072;2023-12-04T00:40:41;20.00;;;9.20;;
77152;SDS011;66124;51.146;17.072;2023-12-04T00:43:12;24.60;;;9.60;;
77152;SDS011;66124;51.146;17.072;2023-12-04T00:45:42;19.40;;;8.10;;
77152;SDS011;66124;51.146;17.072;2023-12-04T00:55:50;21.60;;;9.10;;
77152;SDS011;66124;51.146;17.072;2023-12-04T00:58:19;22.40;;;8.70;;
77152;SDS011;66124;51.146;17.072;2023-12-04T01:00:49;18.50;;;8.50;;
77152;SDS011;66124;51.146;17.072;2023-12-04T01:03:20;20.20;;;8.80;;
77152;SDS011;66124;51.146;17.072;2023-12-04T01:05:49;18.20;;;8.90;;
77152;SDS011;66124;51.146;17.072;2023-12-04T01:08:19;21.60;;;9.50;;
77152;SDS011;66124;51.146;17.072;2023-12-04T01:10:50;20.60;;;9.00;;
77152;SDS011;66124;51.146;17.072;2023-12-04T01:13:20;21.10;;;9.60;;
77152;SDS011;66124;51.146;17.072;2023-12-04T01:15:52;22.40;;;9.30;;
77152;SDS011;66124;51.146;17.072;2023-12-04T01:20:53;20.90;;;9.40;;
77152;SDS011;66124;51.146;17.072;2023-12-04T01:23:24;23.20;;;9.80;;
77152;SDS011;66124;51.146;17.072;2023-12-04T01:25:56;21.80;;;9.90;;
77152;SDS011;66124;51.146;17.072;2023-12-04T01:28:25;19.90;;;8.70;;
77152;SDS011;66124;51.146;17.072;2023-12-04T01:30:55;20.70;;;10.20;;
77152;SDS011;66124;51.146;17.072;2023-12-04T01:33:25;21.70;;;9.30;;
77152;SDS011;66124;51.146;17.072;2023-12-04T01:35:57;19.80;;;9.70;;
77152;SDS011;66124;51.146;17.072;2023-12-04T01:38:28;23.50;;;9.80;;
77152;SDS011;66124;51.146;17.072;2023-12-04T01:40:57;20.50;;;9.10;;
77152;SDS011;66124;51.146;17.072;2023-12-04T01:43:27;18.70;;;8.40;;
77152;SDS011;66124;51.146;17.072;2023-12-04T01:45:56;19.50;;;9.50;;
77152;SDS011;66124;51.146;17.072;2023-12-04T01:48:27;21.40;;;9.70;;
77152;SDS011;66124;51.146;17.072;2023-12-04T01:50:58;18.70;;;9.00;;
77152;SDS011;66124;51.146;17.072;2023-12-04T01:53:31;23.90;;;9.50;;
77152;SDS011;66124;51.146;17.072;2023-12-04T01:56:03;18.80;;;9.10;;
77152;SDS011;66124;51.146;17.072;2023-12-04T01:58:34;25.50;;;9.50;;
77152;SDS011;66124;51.146;17.072;2023-12-04T02:01:04;21.30;;;9.00;;
77152;SDS011;66124;51.146;17.072;2023-12-04T02:03:35;25.50;;;10.50;;
77152;SDS011;66124;51.146;17.072;2023-12-04T02:15:51;21.90;;;9.70;;
77152;SDS011;66124;51.146;17.072;2023-12-04T02:18:22;21.40;;;8.60;;
77152;SDS011;66124;51.146;17.072;2023-12-04T02:20:52;23.20;;;10.40;;
77152;SDS011;66124;51.146;17.072;2023-12-04T02:23:22;24.60;;;9.40;;
77152;SDS011;66124;51.146;17.072;2023-12-04T02:25:51;19.10;;;8.60;;
77152;SDS011;66124;51.146;17.072;2023-12-04T02:28:26;18.70;;;9.00;;
77152;SDS011;66124;51.146;17.072;2023-12-04T02:30:59;20.00;;;8.70;;
77152;SDS011;66124;51.146;17.072;2023-12-04T02:33:31;21.90;;;8.50;;
77152;SDS011;66124;51.146;17.072;2023-12-04T02:36:02;20.60;;;8.60;;
77152;SDS011;66124;51.146;17.072;2023-12-04T02:38:35;22.00;;;9.30;;
77152;SDS011;66124;51.146;17.072;2023-12-04T02:41:05;21.70;;;9.40;;
77152;SDS011;66124;51.146;17.072;2023-12-04T02:43:35;23.90;;;8.80;;
77152;SDS011;66124;51.146;17.072;2023-12-04T02:46:04;19.60;;;9.60;;
77152;SDS011;66124;51.146;17.072;2023-12-04T02:48:34;23.60;;;8.90;;
77152;SDS011;66124;51.146;17.072;2023-12-04T02:51:04;21.30;;;8.90;;
77152;SDS011;66124;51.146;17.072;2023-12-04T02:53:34;19.50;;;9.60;;
77152;SDS011;66124;51.146;17.072;2023-12-04T02:56:05;22.40;;;8.90;;
77152;SDS011;66124;51.146;17.072;2023-12-04T02:58:35;25.60;;;9.40;;
77152;SDS011;66124;51.146;17.072;2023-12-04T03:01:05;22.60;;;9.30;;
77152;SDS011;66124;51.146;17.072;2023-12-04T03:03:35;19.70;;;9.20;;
77152;SDS011;66124;51.146;17.072;2023-12-04T03:06:06;24.40;;;9.50;;
77152;SDS011;66124;51.146;17.072;2023-12-04T03:08:36;16.40;;;8.50;;
77152;SDS011;66124;51.146;17.072;2023-12-04T03:11:05;20.30;;;9.10;;
77152;SDS011;66124;51.146;17.072;2023-12-04T03:13:35;21.60;;;9.70;;
77152;SDS011;66124;51.146;17.072;2023-12-04T03:16:05;21.40;;;9.50;;
77152;SDS011;66124;51.146;17.072;2023-12-04T03:18:42;17.50;;;8.20;;
77152;SDS011;66124;51.146;17.072;2023-12-04T03:21:12;17.80;;;9.00;;
77152;SDS011;66124;51.146;17.072;2023-12-04T03:23:41;17.30;;;7.60;;
77152;SDS011;66124;51.146;17.072;2023-12-04T03:26:11;15.30;;;8.50;;
77152;SDS011;66124;51.146;17.072;2023-12-04T03:36:18;21.00;;;8.80;;
77152;SDS011;66124;51.146;17.072;2023-12-04T03:38:48;21.10;;;9.30;;
77152;SDS011;66124;51.146;17.072;2023-12-04T03:41:18;17.10;;;7.50;;
77152;SDS011;66124;51.146;17.072;2023-12-04T03:43:47;19.20;;;8.10;;
77152;SDS011;66124;51.146;17.072;2023-12-04T03:46:17;17.40;;;7.80;;
77152;SDS011;66124;51.146;17.072;2023-12-04T03:48:47;18.10;;;8.40;;
77152;SDS011;66124;51.146;17.072;2023-12-04T03:51:17;17.30;;;7.90;;
77152;SDS011;66124;51.146;17.072;2023-12-04T03:53:47;23.20;;;9.40;;
77152;SDS011;66124;51.146;17.072;2023-12-04T03:56:17;22.40;;;9.60;;
77152;SDS011;66124;51.146;17.072;2023-12-04T03:58:46;21.30;;;9.20;;
77152;SDS011;66124;51.146;17.072;2023-12-04T04:01:16;20.70;;;9.90;;
77152;SDS011;66124;51.146;17.072;2023-12-04T04:03:45;24.50;;;10.20;;
77152;SDS011;66124;51.146;17.072;2023-12-04T04:06:15;22.10;;;9.40;;
77152;SDS011;66124;51.146;17.072;2023-12-04T04:08:44;26.30;;;11.50;;
77152;SDS011;66124;51.146;17.072;2023-12-04T04:11:14;20.80;;;9.70;;
77152;SDS011;66124;51.146;17.072;2023-12-04T04:13:43;19.00;;;8.70;;
77152;SDS011;66124;51.146;17.072;2023-12-04T04:16:14;20.10;;;9.80;;
77152;SDS011;66124;51.146;17.072;2023-12-04T04:18:43;22.40;;;9.30;;
77152;SDS011;66124;51.146;17.072;2023-12-04T04:21:13;25.10;;;9.10;;
77152;SDS011;66124;51.146;17.072;2023-12-04T04:23:42;23.40;;;9.20;;
77152;SDS011;66124;51.146;17.072;2023-12-04T04:26:12;25.90;;;10.30;;
77152;SDS011;66124;51.146;17.072;2023-12-04T04:28:41;25.50;;;10.40;;
77152;SDS011;66124;51.146;17.072;2023-12-04T04:31:11;23.70;;;9.20;;
77152;SDS011;66124;51.146;17.072;2023-12-04T04:33:40;24.00;;;11.10;;
77152;SDS011;66124;51.146;17.072;2023-12-04T04:36:10;20.00;;;9.30;;
77152;SDS011;66124;51.146;17.072;2023-12-04T04:38:40;23.60;;;10.00;;
77152;SDS011;66124;51.146;17.072;2023-12-04T04:41:14;22.10;;;8.90;;
77152;SDS011;66124;51.146;17.072;2023-12-04T04:43:43;18.00;;;9.90;;
77152;SDS011;66124;51.146;17.072;2023-12-04T05:01:56;24.80;;;9.70;;
77152;SDS011;66124;51.146;17.072;2023-12-04T05:04:25;23.40;;;8.90;;
77152;SDS011;66124;51.146;17.072;2023-12-04T05:06:55;17.90;;;8.60;;
77152;SDS011;66124;51.146;17.072;2023-12-04T05:09:24;20.90;;;9.00;;
77152;SDS011;66124;51.146;17.072;2023-12-04T05:11:57;21.00;;;9.80;;
77152;SDS011;66124;51.146;17.072;2023-12-04T05:14:26;24.70;;;11.00;;
77152;SDS011;66124;51.146;17.072;2023-12-04T05:16:55;25.00;;;9.70;;
77152;SDS011;66124;51.146;17.072;2023-12-04T05:19:25;19.00;;;9.60;;
77152;SDS011;66124;51.146;17.072;2023-12-04T05:21:54;24.20;;;9.80;;
77152;SDS011;66124;51.146;17.072;2023-12-04T05:24:23;25.10;;;9.70;;
77152;SDS011;66124;51.146;17.072;2023-12-04T05:26:53;33.70;;;19.70;;
77152;SDS011;66124;51.146;17.072;2023-12-04T05:29:22;26.80;;;11.80;;
77152;SDS011;66124;51.146;17.072;2023-12-04T05:31:52;25.40;;;11.30;;
77152;SDS011;66124;51.146;17.072;2023-12-04T05:34:21;26.10;;;11.20;;
77152;SDS011;66124;51.146;17.072;2023-12-04T05:36:51;26.70;;;11.00;;
77152;SDS011;66124;51.146;17.072;2023-12-04T05:39:20;23.20;;;10.90;;
77152;SDS011;66124;51.146;17.072;2023-12-04T05:41:50;20.50;;;10.20;;
77152;SDS011;66124;51.146;17.072;2023-12-04T05:44:19;26.50;;;9.30;;
77152;SDS011;66124;51.146;17.072;2023-12-04T05:46:49;27.30;;;10.40;;
77152;SDS011;66124;51.146;17.072;2023-12-04T05:49:18;28.70;;;11.20;;
77152;SDS011;66124;51.146;17.072;2023-12-04T05:51:48;19.40;;;9.90;;
77152;SDS011;66124;51.146;17.072;2023-12-04T05:54:17;23.20;;;10.20;;
77152;SDS011;66124;51.146;17.072;2023-12-04T05:56:47;24.70;;;10.60;;
77152;SDS011;66124;51.146;17.072;2023-12-04T05:59:16;21.70;;;10.60;;
77152;SDS011;66124;51.146;17.072;2023-12-04T06:01:45;28.40;;;9.90;;
77152;SDS011;66124;51.146;17.072;2023-12-04T06:04:15;27.30;;;10.90;;
77152;SDS011;66124;51.146;17.072;2023-12-04T06:06:44;24.70;;;10.40;;
77152;SDS011;66124;51.146;17.072;2023-12-04T06:09:14;25.10;;;9.90;;
77152;SDS011;66124;51.146;17.072;2023-12-04T06:19:32;24.40;;;10.50;;
77152;SDS011;66124;51.146;17.072;2023-12-04T06:22:02;22.30;;;10.20;;
77152;SDS011;66124;51.146;17.072;2023-12-04T06:24:32;24.20;;;10.40;;
77152;SDS011;66124;51.146;17.072;2023-12-04T06:27:02;25.10;;;10.20;;
77152;SDS011;66124;51.146;17.072;2023-12-04T06:29:33;25.10;;;10.10;;
77152;SDS011;66124;51.146;17.072;2023-12-04T06:32:04;24.00;;;9.90;;
77152;SDS011;66124;51.146;17.072;2023-12-04T06:34:35;26.80;;;11.80;;
77152;SDS011;66124;51.146;17.072;2023-12-04T06:37:06;24.40;;;10.50;;
77152;SDS011;66124;51.146;17.072;2023-12-04T06:39:39;27.00;;;10.70;;
77152;SDS011;66124;51.146;17.072;2023-12-04T06:42:24;23.00;;;11.40;;
77152;SDS011;66124;51.146;17.072;2023-12-04T06:44:55;23.00;;;10.50;;
77152;SDS011;66124;51.146;17.072;2023-12-04T06:47:25;26.60;;;11.70;;
77152;SDS011;66124;51.146;17.072;2023-12-04T06:49:57;24.80;;;10.90;;
77152;SDS011;66124;51.146;17.072;2023-12-04T06:52:26;26.20;;;11.10;;
77152;SDS011;66124;51.146;17.072;2023-12-04T06:54:56;27.60;;;10.50;;
77152;SDS011;66124;51.146;17.072;2023-12-04T06:57:25;27.80;;;11.40;;
77152;SDS011;66124;51.146;17.072;2023-12-04T06:59:55;23.00;;;10.60;;
77152;SDS011;66124;51.146;17.072;2023-12-04T07:02:24;32.40;;;11.70;;
77152;SDS011;66124;51.146;17.072;2023-12-04T07:04:54;26.70;;;11.40;;
77152;SDS011;66124;51.146;17.072;2023-12-04T07:07:23;25.10;;;12.20;;
77152;SDS011;66124;51.146;17.072;2023-12-04T07:09:53;31.70;;;12.30;;
77152;SDS011;66124;51.146;17.072;2023-12-04T07:12:22;29.20;;;11.70;;
77152;SDS011;66124;51.146;17.072;2023-12-04T07:14:52;28.00;;;13.20;;
77152;SDS011;66124;51.146;17.072;2023-12-04T07:17:21;30.30;;;12.80;;
77152;SDS011;66124;51.146;17.072;2023-12-04T07:19:51;30.60;;;13.20;;
77152;SDS011;66124;51.146;17.072;2023-12-04T07:22:21;29.00;;;12.80;;
77152;SDS011;66124;51.146;17.072;2023-12-04T07:24:50;29.60;;;14.70;;
77152;SDS011;66124;51.146;17.072;2023-12-04T07:27:20;30.70;;;13.60;;
77152;SDS011;66124;51.146;17.072;2023-12-04T07:40:13;34.70;;;16.00;;
77152;SDS011;66124;51.146;17.072;2023-12-04T07:42:43;37.40;;;16.30;;
77152;SDS011;66124;51.146;17.072;2023-12-04T07:45:12;37.50;;;15.10;;
77152;SDS011;66124;51.146;17.072;2023-12-04T07:47:42;29.60;;;13.20;;
77152;SDS011;66124;51.146;17.072;2023-12-04T07:50:12;35.30;;;14.50;;
77152;SDS011;66124;51.146;17.072;2023-12-04T07:52:41;40.10;;;14.60;;
77152;SDS011;66124;51.146;17.072;2023-12-04T07:55:11;33.20;;;15.80;;
77152;SDS011;66124;51.146;17.072;2023-12-04T07:57:40;37.50;;;16.60;;
77152;SDS011;66124;51.146;17.072;2023-12-04T08:00:11;38.70;;;14.80;;
77152;SDS011;66124;51.146;17.072;2023-12-04T08:02:41;34.60;;;15.90;;
77152;SDS011;66124;51.146;17.072;2023-12-04T08:05:10;35.20;;;14.60;;
77152;SDS011;66124;51.146;17.072;2023-12-04T08:07:40;38.10;;;16.20;;
77152;SDS011;66124;51.146;17.072;2023-12-04T08:10:10;33.10;;;14.00;;
77152;SDS011;66124;51.146;17.072;2023-12-04T08:12:39;43.90;;;18.60;;
77152;SDS011;66124;51.146;17.072;2023-12-04T08:15:12;36.00;;;16.60;;
77152;SDS011;66124;51.146;17.072;2023-12-04T08:17:41;37.90;;;16.20;;
77152;SDS011;66124;51.146;17.072;2023-12-04T08:20:11;37.80;;;16.80;;
77152;SDS011;66124;51.146;17.072;2023-12-04T08:22:41;36.30;;;15.40;;
77152;SDS011;66124;51.146;17.072;2023-12-04T08:25:10;37.90;;;15.60;;
77152;SDS011;66124;51.146;17.072;2023-12-04T08:27:40;38.90;;;16.40;;
77152;SDS011;66124;51.146;17.072;2023-12-04T08:30:10;38.40;;;16.50;;
77152;SDS011;66124;51.146;17.072;2023-12-04T08:32:40;34.90;;;14.90;;
77152;SDS011;66124;51.146;17.072;2023-12-04T08:35:09;30.40;;;13.90;;
77152;SDS011;66124;51.146;17.072;2023-12-04T08:37:39;34.00;;;13.80;;
77152;SDS011;66124;51.146;17.072;2023-12-04T08:40:09;35.40;;;15.30;;
77152;SDS011;66124;51.146;17.072;2023-12-04T08:42:40;38.50;;;16.90;;
77152;SDS011;66124;51.146;17.072;2023-12-04T08:45:10;36.50;;;15.50;;
77152;SDS011;66124;51.146;17.072;2023-12-04T08:47:40;39.00;;;17.10;;
77152;SDS011;66124;51.146;17.072;2023-12-04T08:55:23;39.60;;;18.50;;
77152;SDS011;66124;51.146;17.072;2023-12-04T08:57:53;38.30;;;16.00;;
77152;SDS011;66124;51.146;17.072;2023-12-04T09:00:22;37.10;;;15.70;;
77152;SDS011;66124;51.146;17.072;2023-12-04T09:02:51;39.80;;;19.20;;
77152;SDS011;66124;51.146;17.072;2023-12-04T09:05:21;38.20;;;17.50;;
77152;SDS011;66124;51.146;17.072;2023-12-04T09:07:51;34.90;;;17.00;;
77152;SDS011;66124;51.146;17.072;2023-12-04T09:10:21;32.10;;;14.40;;
77152;SDS011;66124;51.146;17.072;2023-12-04T09:12:50;33.20;;;12.90;;
77152;SDS011;66124;51.146;17.072;2023-12-04T09:15:21;38.60;;;16.70;;
77152;SDS011;66124;51.146;17.072;2023-12-04T09:17:51;27.20;;;11.10;;
77152;SDS011;66124;51.146;17.072;2023-12-04T09:20:20;38.20;;;16.10;;
77152;SDS011;66124;51.146;17.072;2023-12-04T09:22:49;32.60;;;14.00;;
77152;SDS011;66124;51.146;17.072;2023-12-04T09:25:19;36.60;;;16.00;;
77152;SDS011;66124;51.146;17.072;2023-12-04T09:27:49;37.90;;;15.80;;
77152;SDS011;66124;51.146;17.072;2023-12-04T09:30:18;33.70;;;14.00;;
77152;SDS011;66124;51.146;17.072;2023-12-04T09:32:48;39.20;;;16.60;;
77152;SDS011;66124;51.146;17.072;2023-12-04T09:35:17;42.90;;;17.10;;
77152;SDS011;66124;51.146;17.072;2023-12-04T09:37:47;35.30;;;16.60;;
77152;SDS011;66124;51.146;17.072;2023-12-04T09:40:16;40.10;;;16.10;;
77152;SDS011;66124;51.146;17.072;2023-12-04T09:42:46;37.50;;;16.30;;
77152;SDS011;66124;51.146;17.072;2023-12-04T09:45:15;32.90;;;14.70;;
77152;SDS011;66124;51.146;17.072;2023-12-04T09:47:48;30.60;;;12.80;;
77152;SDS011;66124;51.146;17.072;2023-12-04T09:50:18;34.20;;;14.80;;
77152;SDS011;66124;51.146;17.072;2023-12-04T09:52:49;29.50;;;11.60;;
77152;SDS011;66124;51.146;17.072;2023-12-04T09:55:19;20.70;;;7.80;;
77152;SDS011;66124;51.146;17.072;2023-12-04T09:57:48;32.70;;;13.50;;
77152;SDS011;66124;51.146;17.072;2023-12-04T10:00:19;30.70;;;14.50;;
77152;SDS011;66124;51.146;17.072;2023-12-04T10:05:22;8.70;;;6.20;;
77152;SDS011;66124;51.146;17.072;2023-12-04T10:17:34;23.80;;;9.80;;
77152;SDS011;66124;51.146;17.072;2023-12-04T10:20:05;24.40;;;11.60;;
77152;SDS011;66124;51.146;17.072;2023-12-04T10:22:36;27.00;;;11.80;;
77152;SDS011;66124;51.146;17.072;2023-12-04T10:25:16;24.30;;;11.90;;
77152;SDS011;66124;51.146;17.072;2023-12-04T10:27:46;16.30;;;6.70;;
77152;SDS011;66124;51.146;17.072;2023-12-04T10:30:23;22.40;;;9.60;;
77152;SDS011;66124;51.146;17.072;2023-12-04T10:32:57;23.10;;;11.00;;
77152;SDS011;66124;51.146;17.072;2023-12-04T10:35:30;15.20;;;6.60;;
77152;SDS011;66124;51.146;17.072;2023-12-04T10:38:00;16.80;;;7.20;;
77152;SDS011;66124;51.146;17.072;2023-12-04T10:40:31;17.50;;;6.80;;
77152;SDS011;66124;51.146;17.072;2023-12-04T10:43:12;19.10;;;10.00;;
77152;SDS011;66124;51.146;17.072;2023-12-04T10:45:44;22.50;;;9.70;;
77152;SDS011;66124;51.146;17.072;2023-12-04T10:48:16;14.60;;;7.10;;
77152;SDS011;66124;51.146;17.072;2023-12-04T10:50:48;18.40;;;9.40;;
77152;SDS011;66124;51.146;17.072;2023-12-04T10:53:18;26.90;;;12.20;;
77152;SDS011;66124;51.146;17.072;2023-12-04T10:55:47;25.10;;;11.90;;
77152;SDS011;66124;51.146;17.072;2023-12-04T10:58:20;21.70;;;11.30;;
77152;SDS011;66124;51.146;17.072;2023-12-04T11:00:54;24.60;;;13.10;;
77152;SDS011;66124;51.146;17.072;2023-12-04T11:03:28;23.40;;;10.60;;
77152;SDS011;66124;51.146;17.072;2023-12-04T11:06:01;17.80;;;9.80;;
77152;SDS011;66124;51.146;17.072;2023-12-04T11:08:34;23.40;;;11.20;;
77152;SDS011;66124;51.146;17.072;2023-12-04T11:11:08;24.10;;;11.90;;
77152;SDS011;66124;51.146;17.072;2023-12-04T11:13:41;22.60;;;11.80;;
77152;SDS011;66124;51.146;17.072;2023-12-04T11:16:17;27.10;;;12.40;;
77152;SDS011;66124;51.146;17.072;2023-12-04T11:18:56;25.80;;;12.80;;
77152;SDS011;66124;51.146;17.072;2023-12-04T11:21:29;26.30;;;12.60;;
77152;SDS011;66124;51.146;17.072;2023-12-04T11:24:02;26.20;;;14.30;;
77152;SDS011;66124;51.146;17.072;2023-12-04T11:34:02;29.00;;;14.00;;
77152;SDS011;66124;51.146;17.072;2023-12-04T11:36:33;23.10;;;12.00;;
77152;SDS011;66124;51.146;17.072;2023-12-04T11:39:05;23.80;;;13.80;;
77152;SDS011;66124;51.146;17.072;2023-12-04T11:41:39;25.80;;;14.00;;
77152;SDS011;66124;51.146;17.072;2023-12-04T11:44:13;23.30;;;12.20;;
77152;SDS011;66124;51.146;17.072;2023-12-04T11:46:56;24.50;;;13.00;;
77152;SDS011;66124;51.146;17.072;2023-12-04T11:49:34;23.10;;;12.70;;
77152;SDS011;66124;51.146;17.072;2023-12-04T11:52:05;18.70;;;10.40;;
77152;SDS011;66124;51.146;17.072;2023-12-04T11:54:58;20.20;;;10.70;;
77152;SDS011;66124;51.146;17.072;2023-12-04T11:57:33;19.00;;;11.10;;
77152;SDS011;66124;51.146;17.072;2023-12-04T12:00:19;23.90;;;11.30;;
77152;SDS011;66124;51.146;17.072;2023-12-04T12:03:02;20.60;;;11.30;;
77152;SDS011;66124;51.146;17.072;2023-12-04T12:05:35;22.30;;;11.20;;
77152;SDS011;66124;51.146;17.072;2023-12-04T12:08:06;21.00;;;10.90;;
77152;SDS011;66124;51.146;17.072;2023-12-04T12:10:37;23.20;;;13.50;;
77152;SDS011;66124;51.146;17.072;2023-12-04T12:13:08;24.30;;;13.30;;
77152;SDS011;66124;51.146;17.072;2023-12-04T12:15:40;23.50;;;12.10;;
77152;SDS011;66124;51.146;17.072;2023-12-04T12:18:13;22.80;;;12.10;;
77152;SDS011;66124;51.146;17.072;2023-12-04T12:20:44;25.30;;;13.50;;
77152;SDS011;66124;51.146;17.072;2023-12-04T12:23:14;25.20;;;13.80;;
77152;SDS011;66124;51.146;17.072;2023-12-04T12:25:47;23.40;;;12.70;;
77152;SDS011;66124;51.146;17.072;2023-12-04T12:28:19;24.40;;;13.00;;
77152;SDS011;66124;51.146;17.072;2023-12-04T12:30:50;20.60;;;12.20;;
77152;SDS011;66124;51.146;17.072;2023-12-04T12:33:23;22.30;;;10.50;;
77152;SDS011;66124;51.146;17.072;2023-12-04T12:35:54;25.10;;;13.00;;
77152;SDS011;66124;51.146;17.072;2023-12-04T12:38:26;20.40;;;11.20;;
77152;SDS011;66124;51.146;17.072;2023-12-04T12:40:57;20.00;;;11.00;;
77152;SDS011;66124;51.146;17.072;2023-12-04T12:43:27;21.10;;;9.80;;
77152;SDS011;66124;51.146;17.072;2023-12-04T12:52:45;29.50;;;13.60;;
77152;SDS011;66124;51.146;17.072;2023-12-04T12:55:24;25.40;;;12.90;;
77152;SDS011;66124;51.146;17.072;2023-12-04T13:00:25;24.90;;;11.50;;
77152;SDS011;66124;51.146;17.072;2023-12-04T13:02:57;27.00;;;12.60;;
77152;SDS011;66124;51.146;17.072;2023-12-04T13:05:29;27.00;;;11.20;;
77152;SDS011;66124;51.146;17.072;2023-12-04T13:08:00;23.90;;;10.70;;
77152;SDS011;66124;51.146;17.072;2023-12-04T13:10:30;27.10;;;12.80;;
77152;SDS011;66124;51.146;17.072;2023-12-04T13:13:01;28.90;;;13.10;;
77152;SDS011;66124;51.146;17.072;2023-12-04T13:15:32;24.00;;;11.90;;
77152;SDS011;66124;51.146;17.072;2023-12-04T13:18:02;21.40;;;10.30;;
77152;SDS011;66124;51.146;17.072;2023-12-04T13:20:32;18.90;;;9.00;;
77152;SDS011;66124;51.146;17.072;2023-12-04T13:23:02;23.80;;;11.30;;
77152;SDS011;66124;51.146;17.072;2023-12-04T13:25:31;23.50;;;11.60;;
77152;SDS011;66124;51.146;17.072;2023-12-04T13:28:01;23.70;;;11.30;;
77152;SDS011;66124;51.146;17.072;2023-12-04T13:30:30;23.00;;;11.50;;
77152;SDS011;66124;51.146;17.072;2023-12-04T13:33:00;19.50;;;9.40;;
77152;SDS011;66124;51.146;17.072;2023-12-04T13:35:30;23.10;;;9.60;;
77152;SDS011;66124;51.146;17.072;2023-12-04T13:37:59;22.20;;;10.30;;
77152;SDS011;66124;51.146;17.072;2023-12-04T13:40:30;27.40;;;12.20;;
77152;SDS011;66124;51.146;17.072;2023-12-04T13:43:01;24.90;;;10.50;;
77152;SDS011;66124;51.146;17.072;2023-12-04T13:45:31;22.80;;;9.80;;
77152;SDS011;66124;51.146;17.072;2023-12-04T13:48:02;19.70;;;8.90;;
77152;SDS011;66124;51.146;17.072;2023-12-04T13:50:33;24.30;;;12.70;;
77152;SDS011;66124;51.146;17.072;2023-12-04T13:53:04;21.70;;;10.70;;
77152;SDS011;66124;51.146;17.072;2023-12-04T13:55:34;29.00;;;12.70;;
77152;SDS011;66124;51.146;17.072;2023-12-04T13:58:05;33.10;;;15.30;;
77152;SDS011;66124;51.146;17.072;2023-12-04T14:00:36;37.70;;;15.70;;
77152;SDS011;66124;51.146;17.072;2023-12-04T14:07:47;32.80;;;14.20;;
77152;SDS011;66124;51.146;17.072;2023-12-04T14:10:18;28.30;;;10.80;;
77152;SDS011;66124;51.146;17.072;2023-12-04T14:12:48;24.40;;;10.40;;
77152;SDS011;66124;51.146;17.072;2023-12-04T14:15:19;24.80;;;10.60;;
77152;SDS011;66124;51.146;17.072;2023-12-04T14:17:50;29.80;;;12.30;;
77152;SDS011;66124;51.146;17.072;2023-12-04T14:20:20;32.00;;;14.60;;
77152;SDS011;66124;51.146;17.072;2023-12-04T14:22:51;31.70;;;13.30;;
77152;SDS011;66124;51.146;17.072;2023-12-04T14:25:21;21.40;;;9.30;;
77152;SDS011;66124;51.146;17.072;2023-12-04T14:27:52;27.70;;;12.40;;
77152;SDS011;66124;51.146;17.072;2023-12-04T14:30:23;25.40;;;10.30;;
77152;SDS011;66124;51.146;17.072;2023-12-04T14:32:53;23.80;;;10.90;;
77152;SDS011;66124;51.146;17.072;2023-12-04T14:35:23;27.10;;;10.30;;
77152;SDS011;66124;51.146;17.072;2023-12-04T14:37:53;24.90;;;10.60;;
77152;SDS011;66124;51.146;17.072;2023-12-04T14:40:23;17.40;;;7.30;;
77152;SDS011;66124;51.146;17.072;2023-12-04T14:42:53;19.80;;;9.70;;
77152;SDS011;66124;51.146;17.072;2023-12-04T14:45:22;27.60;;;12.00;;
77152;SDS011;66124;51.146;17.072;2023-12-04T14:47:52;31.90;;;13.90;;
77152;SDS011;66124;51.146;17.072;2023-12-04T14:50:21;35.90;;;15.90;;
77152;SDS011;66124;51.146;17.072;2023-12-04T14:52:51;25.50;;;12.40;;
77152;SDS011;66124;51.146;17.072;2023-12-04T14:55:20;34.50;;;12.70;;
77152;SDS011;66124;51.146;17.072;2023-12-04T14:57:50;36.70;;;14.70;;
77152;SDS011;66124;51.146;17.072;2023-12-04T15:00:20;32.60;;;14.40;;
77152;SDS011;66124;51.146;17.072;2023-12-04T15:02:50;31.70;;;13.30;;
77152;SDS011;66124;51.146;17.072;2023-12-04T15:05:19;28.50;;;12.90;;
77152;SDS011;66124;51.146;17.072;2023-12-04T15:07:49;35.50;;;15.30;;
77152;SDS011;66124;51.146;17.072;2023-12-04T15:10:18;31.50;;;11.90;;
77152;SDS011;66124;51.146;17.072;2023-12-04T15:12:48;24.70;;;12.40;;
77152;SDS011;66124;51.146;17.072;2023-12-04T15:17:45;23.50;;;9.30;;
77152;SDS011;66124;51.146;17.072;2023-12-04T15:20:14;24.90;;;24.80;;
77152;SDS011;66124;51.146;17.072;2023-12-04T15:29:32;17.90;;;6.90;;
77152;SDS011;66124;51.146;17.072;2023-12-04T15:32:02;31.20;;;13.30;;
77152;SDS011;66124;51.146;17.072;2023-12-04T15:34:31;21.50;;;8.10;;
77152;SDS011;66124;51.146;17.072;2023-12-04T15:37:01;25.40;;;9.90;;
77152;SDS011;66124;51.146;17.072;2023-12-04T15:39:31;30.60;;;13.20;;
77152;SDS011;66124;51.146;17.072;2023-12-04T15:42:00;27.00;;;11.90;;
77152;SDS011;66124;51.146;17.072;2023-12-04T15:44:30;33.90;;;12.70;;
77152;SDS011;66124;51.146;17.072;2023-12-04T15:47:00;33.00;;;12.80;;
77152;SDS011;66124;51.146;17.072;2023-12-04T15:49:29;25.00;;;12.80;;
77152;SDS011;66124;51.146;17.072;2023-12-04T15:51:59;26.30;;;12.60;;
77152;SDS011;66124;51.146;17.072;2023-12-04T15:54:28;23.60;;;9.80;;
77152;SDS011;66124;51.146;17.072;2023-12-04T15:56:59;32.00;;;13.70;;
77152;SDS011;66124;51.146;17.072;2023-12-04T15:59:34;23.70;;;9.40;;
77152;SDS011;66124;51.146;17.072;2023-12-04T16:02:03;31.20;;;11.70;;
77152;SDS011;66124;51.146;17.072;2023-12-04T16:04:33;23.60;;;11.40;;
77152;SDS011;66124;51.146;17.072;2023-12-04T16:07:02;26.50;;;10.90;;
77152;SDS011;66124;51.146;17.072;2023-12-04T16:09:35;27.30;;;9.70;;
77152;SDS011;66124;51.146;17.072;2023-12-04T16:12:05;18.20;;;7.80;;
77152;SDS011;66124;51.146;17.072;2023-12-04T16:14:35;23.90;;;10.10;;
77152;SDS011;66124;51.146;17.072;2023-12-04T16:17:05;22.50;;;10.30;;
77152;SDS011;66124;51.146;17.072;2023-12-04T16:19:34;26.30;;;11.30;;
77152;SDS011;66124;51.146;17.072;2023-12-04T16:22:04;19.60;;;8.80;;